sensor_id;sensor_type;location;lat;lon;timestamp;temperature;humidity
28336;DHT22;15592;53.656;7.276;2023-02-24T00:01:59;5.10;99.90
28336;DHT22;15592;53.656;7.276;2023-02-24T00:04:27;5.10;99.90
28336;DHT22;15592;53.656;7.276;2023-02-24T00:06:53;5.10;99.90
28336;DHT22;15592;53.656;7.276;2023-02-24T00:09:21;5.00;99.90
28336;DHT22;15592;53.656;7.276;2023-02-24T00:11:58;5.00;99.90
28336;DHT22;15592;53.656;7.276;2023-02-24T00:14:28;5.00;99.90
28336;DHT22;15592;53.656;7.276;2023-02-24T00:16:54;5.00;99.90
28336;DHT22;15592;53.656;7.276;2023-02-24T00:19:22;5.00;99.90
28336;DHT22;15592;53.656;7.276;2023-02-24T00:21:48;5.00;99.90
28336;DHT22;15592;53.656;7.276;2023-02-24T00:24:16;4.90;99.90
28336;DHT22;15592;53.656;7.276;2023-02-24T00:26:43;5.00;99.90
28336;DHT22;15592;53.656;7.276;2023-02-24T00:29:11;4.90;99.90
28336;DHT22;15592;53.656;7.276;2023-02-24T00:31:38;5.00;99.90
28336;DHT22;15592;53.656;7.276;2023-02-24T00:34:07;4.90;99.90
28336;DHT22;15592;53.656;7.276;2023-02-24T00:36:33;4.90;99.90
28336;DHT22;15592;53.656;7.276;2023-02-24T00:39:01;4.90;99.90
28336;DHT22;15592;53.656;7.276;2023-02-24T00:41:31;5.00;99.90
28336;DHT22;15592;53.656;7.276;2023-02-24T00:43:59;5.00;99.90
28336;DHT22;15592;53.656;7.276;2023-02-24T00:46:40;5.00;99.90
28336;DHT22;15592;53.656;7.276;2023-02-24T00:49:11;5.00;99.90
28336;DHT22;15592;53.656;7.276;2023-02-24T00:51:39;5.10;99.90
28336;DHT22;15592;53.656;7.276;2023-02-24T00:54:07;5.00;99.90
28336;DHT22;15592;53.656;7.276;2023-02-24T00:56:32;5.10;99.90
28336;DHT22;15592;53.656;7.276;2023-02-24T00:59:00;5.10;99.90
28336;DHT22;15592;53.656;7.276;2023-02-24T01:01:28;5.10;99.90
28336;DHT22;15592;53.656;7.276;2023-02-24T01:03:58;5.10;99.90
28336;DHT22;15592;53.656;7.276;2023-02-24T01:06:27;5.10;99.90
28336;DHT22;15592;53.656;7.276;2023-02-24T01:08:54;5.10;99.90
28336;DHT22;15592;53.656;7.276;2023-02-24T01:11:23;5.10;99.90
28336;DHT22;15592;53.656;7.276;2023-02-24T01:14:16;5.00;99.90
28336;DHT22;15592;53.656;7.276;2023-02-24T01:16:43;5.00;99.90
28336;DHT22;15592;53.656;7.276;2023-02-24T01:19:15;5.00;99.90
28336;DHT22;15592;53.656;7.276;2023-02-24T01:21:41;5.00;99.90
28336;DHT22;15592;53.656;7.276;2023-02-24T01:24:07;5.00;99.90
28336;DHT22;15592;53.656;7.276;2023-02-24T01:26:35;4.90;99.90
28336;DHT22;15592;53.656;7.276;2023-02-24T01:29:01;4.90;99.90
28336;DHT22;15592;53.656;7.276;2023-02-24T01:31:28;4.90;99.90
28336;DHT22;15592;53.656;7.276;2023-02-24T01:33:54;4.90;99.90
28336;DHT22;15592;53.656;7.276;2023-02-24T01:36:22;4.90;99.90
28336;DHT22;15592;53.656;7.276;2023-02-24T01:38:49;4.90;99.90
28336;DHT22;15592;53.656;7.276;2023-02-24T01:41:18;4.90;99.90
28336;DHT22;15592;53.656;7.276;2023-02-24T01:46:40;5.00;99.90
28336;DHT22;15592;53.656;7.276;2023-02-24T01:49:43;5.00;99.90
28336;DHT22;15592;53.656;7.276;2023-02-24T01:52:22;5.00;99.90
28336;DHT22;15592;53.656;7.276;2023-02-24T01:57:25;5.10;99.90
28336;DHT22;15592;53.656;7.276;2023-02-24T01:59:55;5.10;99.90
28336;DHT22;15592;53.656;7.276;2023-02-24T02:02:26;5.10;99.90
28336;DHT22;15592;53.656;7.276;2023-02-24T02:05:04;5.10;99.90
28336;DHT22;15592;53.656;7.276;2023-02-24T02:07:30;5.00;99.90
28336;DHT22;15592;53.656;7.276;2023-02-24T02:09:57;5.10;99.90
28336;DHT22;15592;53.656;7.276;2023-02-24T02:12:26;5.10;99.90
28336;DHT22;15592;53.656;7.276;2023-02-24T02:14:53;5.10;99.90
28336;DHT22;15592;53.656;7.276;2023-02-24T02:20:31;5.10;99.90
28336;DHT22;15592;53.656;7.276;2023-02-24T02:31:41;5.10;99.90
28336;DHT22;15592;53.656;7.276;2023-02-24T02:42:44;5.20;99.90
28336;DHT22;15592;53.656;7.276;2023-02-24T02:45:26;5.20;99.90
28336;DHT22;15592;53.656;7.276;2023-02-24T02:47:58;5.20;99.90
28336;DHT22;15592;53.656;7.276;2023-02-24T02:53:17;5.20;99.90
28336;DHT22;15592;53.656;7.276;2023-02-24T02:55:48;5.20;99.90
28336;DHT22;15592;53.656;7.276;2023-02-24T02:58:21;5.20;99.90
28336;DHT22;15592;53.656;7.276;2023-02-24T03:00:51;5.20;99.90
28336;DHT22;15592;53.656;7.276;2023-02-24T03:03:30;5.20;99.90
28336;DHT22;15592;53.656;7.276;2023-02-24T03:06:08;5.30;99.90
28336;DHT22;15592;53.656;7.276;2023-02-24T03:08:37;5.30;99.90
28336;DHT22;15592;53.656;7.276;2023-02-24T03:11:08;5.30;99.90
28336;DHT22;15592;53.656;7.276;2023-02-24T03:13:40;5.40;99.90
28336;DHT22;15592;53.656;7.276;2023-02-24T03:16:09;5.40;99.90
28336;DHT22;15592;53.656;7.276;2023-02-24T03:18:51;5.40;99.90
28336;DHT22;15592;53.656;7.276;2023-02-24T03:21:33;5.30;99.90
28336;DHT22;15592;53.656;7.276;2023-02-24T03:24:01;5.30;99.90
28336;DHT22;15592;53.656;7.276;2023-02-24T03:26:51;5.30;99.90
28336;DHT22;15592;53.656;7.276;2023-02-24T03:32:04;5.30;99.90
28336;DHT22;15592;53.656;7.276;2023-02-24T03:37:10;5.40;99.90
28336;DHT22;15592;53.656;7.276;2023-02-24T03:39:37;5.40;99.90
28336;DHT22;15592;53.656;7.276;2023-02-24T03:42:07;5.40;99.90
28336;DHT22;15592;53.656;7.276;2023-02-24T03:44:35;5.40;99.90
28336;DHT22;15592;53.656;7.276;2023-02-24T03:47:00;5.40;99.90
28336;DHT22;15592;53.656;7.276;2023-02-24T03:49:27;5.40;99.90
28336;DHT22;15592;53.656;7.276;2023-02-24T03:57:24;5.50;99.90
28336;DHT22;15592;53.656;7.276;2023-02-24T04:00:09;5.50;99.90
28336;DHT22;15592;53.656;7.276;2023-02-24T04:02:55;5.50;99.90
28336;DHT22;15592;53.656;7.276;2023-02-24T04:05:26;5.50;99.90
28336;DHT22;15592;53.656;7.276;2023-02-24T04:07:58;5.50;99.90
28336;DHT22;15592;53.656;7.276;2023-02-24T04:10:58;5.50;99.90
28336;DHT22;15592;53.656;7.276;2023-02-24T04:13:37;5.50;99.90
28336;DHT22;15592;53.656;7.276;2023-02-24T04:16:15;5.50;99.90
28336;DHT22;15592;53.656;7.276;2023-02-24T04:18:47;5.50;99.90
28336;DHT22;15592;53.656;7.276;2023-02-24T04:21:16;5.50;99.90
28336;DHT22;15592;53.656;7.276;2023-02-24T04:23:44;5.50;99.90
28336;DHT22;15592;53.656;7.276;2023-02-24T04:26:11;5.50;99.90
28336;DHT22;15592;53.656;7.276;2023-02-24T04:28:39;5.50;99.90
28336;DHT22;15592;53.656;7.276;2023-02-24T04:31:08;5.50;99.90
28336;DHT22;15592;53.656;7.276;2023-02-24T04:33:36;5.50;99.90
28336;DHT22;15592;53.656;7.276;2023-02-24T04:36:03;5.60;99.90
28336;DHT22;15592;53.656;7.276;2023-02-24T04:38:29;5.60;99.90
28336;DHT22;15592;53.656;7.276;2023-02-24T04:40:55;5.50;99.90
28336;DHT22;15592;53.656;7.276;2023-02-24T04:43:22;5.50;99.90
28336;DHT22;15592;53.656;7.276;2023-02-24T04:45:47;5.50;99.90
28336;DHT22;15592;53.656;7.276;2023-02-24T04:48:16;5.50;99.90
28336;DHT22;15592;53.656;7.276;2023-02-24T04:50:43;5.60;99.90
28336;DHT22;15592;53.656;7.276;2023-02-24T04:53:15;5.50;99.90
28336;DHT22;15592;53.656;7.276;2023-02-24T04:55:44;5.50;99.90
28336;DHT22;15592;53.656;7.276;2023-02-24T04:58:16;5.40;99.90
28336;DHT22;15592;53.656;7.276;2023-02-24T05:00:44;5.40;99.90
28336;DHT22;15592;53.656;7.276;2023-02-24T05:03:14;5.40;99.90
28336;DHT22;15592;53.656;7.276;2023-02-24T05:05:46;5.40;99.90
28336;DHT22;15592;53.656;7.276;2023-02-24T05:08:16;5.30;99.90
28336;DHT22;15592;53.656;7.276;2023-02-24T05:10:43;5.30;99.90
28336;DHT22;15592;53.656;7.276;2023-02-24T05:13:21;5.30;99.90
28336;DHT22;15592;53.656;7.276;2023-02-24T05:15:52;5.30;99.90
28336;DHT22;15592;53.656;7.276;2023-02-24T05:18:18;5.30;99.90
28336;DHT22;15592;53.656;7.276;2023-02-24T05:20:50;5.30;99.90
28336;DHT22;15592;53.656;7.276;2023-02-24T05:23:36;5.20;99.90
28336;DHT22;15592;53.656;7.276;2023-02-24T05:26:05;5.20;99.90
28336;DHT22;15592;53.656;7.276;2023-02-24T05:28:36;5.20;99.90
28336;DHT22;15592;53.656;7.276;2023-02-24T05:33:32;5.20;99.90
28336;DHT22;15592;53.656;7.276;2023-02-24T05:36:02;5.20;99.90
28336;DHT22;15592;53.656;7.276;2023-02-24T05:38:28;5.20;99.90
28336;DHT22;15592;53.656;7.276;2023-02-24T05:40:54;5.20;99.90
28336;DHT22;15592;53.656;7.276;2023-02-24T05:43:29;5.20;99.90
28336;DHT22;15592;53.656;7.276;2023-02-24T05:46:01;5.10;99.90
28336;DHT22;15592;53.656;7.276;2023-02-24T05:48:29;5.10;99.90
28336;DHT22;15592;53.656;7.276;2023-02-24T05:51:03;5.10;99.90
28336;DHT22;15592;53.656;7.276;2023-02-24T05:53:32;5.10;99.90
28336;DHT22;15592;53.656;7.276;2023-02-24T05:56:01;5.10;99.90
28336;DHT22;15592;53.656;7.276;2023-02-24T05:58:27;5.10;99.90
28336;DHT22;15592;53.656;7.276;2023-02-24T06:00:53;5.20;99.90
28336;DHT22;15592;53.656;7.276;2023-02-24T06:03:20;5.10;99.90
28336;DHT22;15592;53.656;7.276;2023-02-24T06:05:56;5.10;99.90
28336;DHT22;15592;53.656;7.276;2023-02-24T06:08:24;5.10;99.90
28336;DHT22;15592;53.656;7.276;2023-02-24T06:10:50;5.10;99.90
28336;DHT22;15592;53.656;7.276;2023-02-24T06:13:16;5.10;99.90
28336;DHT22;15592;53.656;7.276;2023-02-24T06:15:41;5.10;99.90
28336;DHT22;15592;53.656;7.276;2023-02-24T06:18:15;5.10;99.90
28336;DHT22;15592;53.656;7.276;2023-02-24T06:20:42;5.10;99.90
28336;DHT22;15592;53.656;7.276;2023-02-24T06:23:09;5.00;99.90
28336;DHT22;15592;53.656;7.276;2023-02-24T06:25:35;5.10;99.90
28336;DHT22;15592;53.656;7.276;2023-02-24T06:28:03;5.10;99.90
28336;DHT22;15592;53.656;7.276;2023-02-24T06:30:28;5.10;99.90
28336;DHT22;15592;53.656;7.276;2023-02-24T06:32:54;5.10;99.90
28336;DHT22;15592;53.656;7.276;2023-02-24T06:35:21;5.10;99.90
28336;DHT22;15592;53.656;7.276;2023-02-24T06:37:47;5.10;99.90
28336;DHT22;15592;53.656;7.276;2023-02-24T06:40:13;5.20;99.90
28336;DHT22;15592;53.656;7.276;2023-02-24T06:43:11;5.10;99.90
28336;DHT22;15592;53.656;7.276;2023-02-24T06:45:40;5.20;99.90
28336;DHT22;15592;53.656;7.276;2023-02-24T06:48:05;5.10;99.90
28336;DHT22;15592;53.656;7.276;2023-02-24T06:50:33;5.20;99.90
28336;DHT22;15592;53.656;7.276;2023-02-24T06:53:02;5.20;99.90
28336;DHT22;15592;53.656;7.276;2023-02-24T06:55:35;5.20;99.90
28336;DHT22;15592;53.656;7.276;2023-02-24T06:58:01;5.10;99.90
28336;DHT22;15592;53.656;7.276;2023-02-24T07:00:32;5.20;99.90
28336;DHT22;15592;53.656;7.276;2023-02-24T07:03:12;5.10;99.90
28336;DHT22;15592;53.656;7.276;2023-02-24T07:05:41;5.20;99.90
28336;DHT22;15592;53.656;7.276;2023-02-24T07:08:07;5.20;99.90
28336;DHT22;15592;53.656;7.276;2023-02-24T07:10:33;5.30;99.90
28336;DHT22;15592;53.656;7.276;2023-02-24T07:12:59;5.30;99.90
28336;DHT22;15592;53.656;7.276;2023-02-24T07:15:25;5.20;99.90
28336;DHT22;15592;53.656;7.276;2023-02-24T07:17:56;5.30;99.90
28336;DHT22;15592;53.656;7.276;2023-02-24T07:20:22;5.30;99.90
28336;DHT22;15592;53.656;7.276;2023-02-24T07:22:49;5.30;99.90
28336;DHT22;15592;53.656;7.276;2023-02-24T07:25:15;5.40;99.90
28336;DHT22;15592;53.656;7.276;2023-02-24T07:27:58;5.30;99.90
28336;DHT22;15592;53.656;7.276;2023-02-24T07:30:27;5.30;99.90
28336;DHT22;15592;53.656;7.276;2023-02-24T07:32:52;5.30;99.90
28336;DHT22;15592;53.656;7.276;2023-02-24T07:35:20;5.30;99.90
28336;DHT22;15592;53.656;7.276;2023-02-24T07:37:46;5.30;99.90
28336;DHT22;15592;53.656;7.276;2023-02-24T07:40:15;5.40;99.90
28336;DHT22;15592;53.656;7.276;2023-02-24T07:42:45;5.30;99.90
28336;DHT22;15592;53.656;7.276;2023-02-24T07:45:12;5.40;99.90
28336;DHT22;15592;53.656;7.276;2023-02-24T07:47:38;5.40;99.90
28336;DHT22;15592;53.656;7.276;2023-02-24T07:50:06;5.40;99.90
28336;DHT22;15592;53.656;7.276;2023-02-24T07:52:38;5.40;99.90
28336;DHT22;15592;53.656;7.276;2023-02-24T07:55:04;5.50;99.90
28336;DHT22;15592;53.656;7.276;2023-02-24T07:57:29;5.40;99.90
28336;DHT22;15592;53.656;7.276;2023-02-24T07:59:58;5.50;99.90
28336;DHT22;15592;53.656;7.276;2023-02-24T08:02:24;5.40;99.90
28336;DHT22;15592;53.656;7.276;2023-02-24T08:04:53;5.50;99.90
28336;DHT22;15592;53.656;7.276;2023-02-24T08:07:19;5.40;99.90
28336;DHT22;15592;53.656;7.276;2023-02-24T08:09:54;5.50;99.90
28336;DHT22;15592;53.656;7.276;2023-02-24T08:12:39;5.50;99.90
28336;DHT22;15592;53.656;7.276;2023-02-24T08:15:08;5.50;99.90
28336;DHT22;15592;53.656;7.276;2023-02-24T08:17:42;5.50;99.90
28336;DHT22;15592;53.656;7.276;2023-02-24T08:20:08;5.50;99.90
28336;DHT22;15592;53.656;7.276;2023-02-24T08:22:38;5.50;99.90
28336;DHT22;15592;53.656;7.276;2023-02-24T08:25:08;5.50;99.90
28336;DHT22;15592;53.656;7.276;2023-02-24T08:27:36;5.50;99.90
28336;DHT22;15592;53.656;7.276;2023-02-24T08:30:05;5.50;99.90
28336;DHT22;15592;53.656;7.276;2023-02-24T08:32:40;5.60;99.90
28336;DHT22;15592;53.656;7.276;2023-02-24T08:35:18;5.60;99.90
28336;DHT22;15592;53.656;7.276;2023-02-24T08:37:52;5.60;99.90
28336;DHT22;15592;53.656;7.276;2023-02-24T08:40:32;5.70;99.90
28336;DHT22;15592;53.656;7.276;2023-02-24T08:43:11;5.80;99.90
28336;DHT22;15592;53.656;7.276;2023-02-24T08:45:45;5.80;99.90
28336;DHT22;15592;53.656;7.276;2023-02-24T08:48:17;5.80;99.90
28336;DHT22;15592;53.656;7.276;2023-02-24T08:50:53;6.00;99.90
28336;DHT22;15592;53.656;7.276;2023-02-24T08:53:20;6.10;99.90
28336;DHT22;15592;53.656;7.276;2023-02-24T08:55:47;6.10;99.90
28336;DHT22;15592;53.656;7.276;2023-02-24T08:58:17;6.10;99.90
28336;DHT22;15592;53.656;7.276;2023-02-24T09:00:44;6.20;99.90
28336;DHT22;15592;53.656;7.276;2023-02-24T09:03:17;6.30;99.90
28336;DHT22;15592;53.656;7.276;2023-02-24T09:06:04;6.30;99.90
28336;DHT22;15592;53.656;7.276;2023-02-24T09:08:32;6.40;99.90
28336;DHT22;15592;53.656;7.276;2023-02-24T09:11:00;6.50;99.90
28336;DHT22;15592;53.656;7.276;2023-02-24T09:13:26;6.50;99.90
28336;DHT22;15592;53.656;7.276;2023-02-24T09:16:03;6.50;99.90
28336;DHT22;15592;53.656;7.276;2023-02-24T09:22:35;6.60;99.90
28336;DHT22;15592;53.656;7.276;2023-02-24T09:25:27;6.70;99.90
28336;DHT22;15592;53.656;7.276;2023-02-24T09:28:39;6.80;99.90
28336;DHT22;15592;53.656;7.276;2023-02-24T09:34:44;6.90;99.90
28336;DHT22;15592;53.656;7.276;2023-02-24T09:37:13;6.90;99.90
28336;DHT22;15592;53.656;7.276;2023-02-24T09:39:50;6.80;99.90
28336;DHT22;15592;53.656;7.276;2023-02-24T09:42:25;6.80;99.90
28336;DHT22;15592;53.656;7.276;2023-02-24T09:44:58;6.80;99.90
28336;DHT22;15592;53.656;7.276;2023-02-24T09:52:46;6.80;99.90
28336;DHT22;15592;53.656;7.276;2023-02-24T09:55:37;7.00;99.90
28336;DHT22;15592;53.656;7.276;2023-02-24T09:58:11;7.10;99.90
28336;DHT22;15592;53.656;7.276;2023-02-24T10:06:20;7.20;99.90
28336;DHT22;15592;53.656;7.276;2023-02-24T10:08:55;7.30;99.90
28336;DHT22;15592;53.656;7.276;2023-02-24T10:11:23;7.40;99.90
28336;DHT22;15592;53.656;7.276;2023-02-24T10:13:59;7.40;99.90
28336;DHT22;15592;53.656;7.276;2023-02-24T10:16:26;7.50;99.90
28336;DHT22;15592;53.656;7.276;2023-02-24T10:21:47;7.70;99.90
28336;DHT22;15592;53.656;7.276;2023-02-24T10:27:02;7.80;99.90
28336;DHT22;15592;53.656;7.276;2023-02-24T10:32:22;8.00;99.90
28336;DHT22;15592;53.656;7.276;2023-02-24T10:34:53;7.90;99.90
28336;DHT22;15592;53.656;7.276;2023-02-24T10:37:22;7.60;99.90
28336;DHT22;15592;53.656;7.276;2023-02-24T10:39:49;7.40;99.90
28336;DHT22;15592;53.656;7.276;2023-02-24T10:42:27;7.30;99.90
28336;DHT22;15592;53.656;7.276;2023-02-24T10:45:11;7.20;99.90
28336;DHT22;15592;53.656;7.276;2023-02-24T10:47:43;7.10;99.90
28336;DHT22;15592;53.656;7.276;2023-02-24T10:50:26;7.10;99.90
28336;DHT22;15592;53.656;7.276;2023-02-24T10:53:10;7.10;99.90
28336;DHT22;15592;53.656;7.276;2023-02-24T10:55:50;7.10;99.90
28336;DHT22;15592;53.656;7.276;2023-02-24T10:58:30;7.10;99.90
28336;DHT22;15592;53.656;7.276;2023-02-24T11:01:14;7.10;99.90
28336;DHT22;15592;53.656;7.276;2023-02-24T11:03:59;7.10;99.90
28336;DHT22;15592;53.656;7.276;2023-02-24T11:06:28;7.20;99.90
28336;DHT22;15592;53.656;7.276;2023-02-24T11:09:22;7.30;99.90
28336;DHT22;15592;53.656;7.276;2023-02-24T11:12:05;7.30;99.90
28336;DHT22;15592;53.656;7.276;2023-02-24T11:14:55;7.40;99.90
28336;DHT22;15592;53.656;7.276;2023-02-24T11:17:49;7.50;99.90
28336;DHT22;15592;53.656;7.276;2023-02-24T11:22:53;8.00;99.90
28336;DHT22;15592;53.656;7.276;2023-02-24T11:28:01;8.20;99.90
28336;DHT22;15592;53.656;7.276;2023-02-24T11:30:44;8.30;99.90
28336;DHT22;15592;53.656;7.276;2023-02-24T11:35:59;8.30;99.90
28336;DHT22;15592;53.656;7.276;2023-02-24T11:41:26;8.00;99.90
28336;DHT22;15592;53.656;7.276;2023-02-24T11:44:06;7.90;99.90
28336;DHT22;15592;53.656;7.276;2023-02-24T11:46:47;7.80;99.90
28336;DHT22;15592;53.656;7.276;2023-02-24T11:51:46;7.60;99.90
28336;DHT22;15592;53.656;7.276;2023-02-24T11:54:14;7.50;99.90
28336;DHT22;15592;53.656;7.276;2023-02-24T11:56:44;7.50;99.90
28336;DHT22;15592;53.656;7.276;2023-02-24T12:04:29;7.60;99.90
28336;DHT22;15592;53.656;7.276;2023-02-24T12:07:04;7.70;99.90
28336;DHT22;15592;53.656;7.276;2023-02-24T12:09:48;7.70;99.90
28336;DHT22;15592;53.656;7.276;2023-02-24T12:12:36;7.80;99.90
28336;DHT22;15592;53.656;7.276;2023-02-24T12:15:24;7.80;99.90
28336;DHT22;15592;53.656;7.276;2023-02-24T12:18:05;7.70;99.90
28336;DHT22;15592;53.656;7.276;2023-02-24T12:20:41;7.70;99.90
28336;DHT22;15592;53.656;7.276;2023-02-24T12:26:22;7.70;99.90
28336;DHT22;15592;53.656;7.276;2023-02-24T12:37:59;7.70;99.90
28336;DHT22;15592;53.656;7.276;2023-02-24T12:51:58;7.80;99.90
28336;DHT22;15592;53.656;7.276;2023-02-24T12:54:22;7.70;99.90
28336;DHT22;15592;53.656;7.276;2023-02-24T12:56:51;7.80;99.90
28336;DHT22;15592;53.656;7.276;2023-02-24T12:59:25;7.60;99.90
28336;DHT22;15592;53.656;7.276;2023-02-24T13:02:00;7.80;99.90
28336;DHT22;15592;53.656;7.276;2023-02-24T13:04:34;7.80;99.90
28336;DHT22;15592;53.656;7.276;2023-02-24T13:15:34;7.80;99.90
28336;DHT22;15592;53.656;7.276;2023-02-24T13:18:00;7.80;99.90
28336;DHT22;15592;53.656;7.276;2023-02-24T13:20:30;7.70;99.90
28336;DHT22;15592;53.656;7.276;2023-02-24T13:22:57;7.50;99.90
28336;DHT22;15592;53.656;7.276;2023-02-24T13:25:30;7.40;99.90
28336;DHT22;15592;53.656;7.276;2023-02-24T13:28:02;7.30;99.90
28336;DHT22;15592;53.656;7.276;2023-02-24T13:30:34;7.30;99.90
28336;DHT22;15592;53.656;7.276;2023-02-24T13:33:05;7.40;99.90
28336;DHT22;15592;53.656;7.276;2023-02-24T13:35:32;7.30;99.90
28336;DHT22;15592;53.656;7.276;2023-02-24T13:38:08;7.30;99.90
28336;DHT22;15592;53.656;7.276;2023-02-24T13:40:35;7.30;99.90
28336;DHT22;15592;53.656;7.276;2023-02-24T13:43:01;7.20;99.90
28336;DHT22;15592;53.656;7.276;2023-02-24T13:45:36;7.20;99.90
28336;DHT22;15592;53.656;7.276;2023-02-24T13:53:39;7.30;99.90
28336;DHT22;15592;53.656;7.276;2023-02-24T13:58:42;7.30;99.90
28336;DHT22;15592;53.656;7.276;2023-02-24T14:01:11;7.30;99.90
28336;DHT22;15592;53.656;7.276;2023-02-24T14:03:41;7.20;99.90
28336;DHT22;15592;53.656;7.276;2023-02-24T14:06:23;7.10;99.90
28336;DHT22;15592;53.656;7.276;2023-02-24T14:08:53;6.90;99.90
28336;DHT22;15592;53.656;7.276;2023-02-24T14:11:22;6.80;99.90
28336;DHT22;15592;53.656;7.276;2023-02-24T14:13:53;6.80;99.90
28336;DHT22;15592;53.656;7.276;2023-02-24T14:16:24;6.80;99.90
28336;DHT22;15592;53.656;7.276;2023-02-24T14:18:59;6.80;99.90
28336;DHT22;15592;53.656;7.276;2023-02-24T14:21:32;6.80;99.90
28336;DHT22;15592;53.656;7.276;2023-02-24T14:24:02;6.90;99.90
28336;DHT22;15592;53.656;7.276;2023-02-24T14:26:41;6.80;99.90
28336;DHT22;15592;53.656;7.276;2023-02-24T14:29:08;6.90;99.90
28336;DHT22;15592;53.656;7.276;2023-02-24T14:31:34;6.90;99.90
28336;DHT22;15592;53.656;7.276;2023-02-24T14:34:01;6.90;99.90
28336;DHT22;15592;53.656;7.276;2023-02-24T14:36:36;7.00;99.90
28336;DHT22;15592;53.656;7.276;2023-02-24T14:39:06;7.00;99.90
28336;DHT22;15592;53.656;7.276;2023-02-24T14:41:33;7.00;99.90
28336;DHT22;15592;53.656;7.276;2023-02-24T14:44:23;7.00;99.90
28336;DHT22;15592;53.656;7.276;2023-02-24T14:46:58;6.90;99.90
28336;DHT22;15592;53.656;7.276;2023-02-24T14:49:28;6.90;99.90
28336;DHT22;15592;53.656;7.276;2023-02-24T14:52:05;6.90;99.90
28336;DHT22;15592;53.656;7.276;2023-02-24T14:57:11;6.40;99.90
28336;DHT22;15592;53.656;7.276;2023-02-24T14:59:39;6.30;99.90
28336;DHT22;15592;53.656;7.276;2023-02-24T15:02:13;6.40;99.90
28336;DHT22;15592;53.656;7.276;2023-02-24T15:04:40;6.30;99.90
28336;DHT22;15592;53.656;7.276;2023-02-24T15:07:25;6.30;99.90
28336;DHT22;15592;53.656;7.276;2023-02-24T15:09:51;6.30;99.90
28336;DHT22;15592;53.656;7.276;2023-02-24T15:12:28;6.30;99.90
28336;DHT22;15592;53.656;7.276;2023-02-24T15:17:44;6.30;99.90
28336;DHT22;15592;53.656;7.276;2023-02-24T15:20:27;6.30;99.90
28336;DHT22;15592;53.656;7.276;2023-02-24T15:22:53;6.20;99.90
28336;DHT22;15592;53.656;7.276;2023-02-24T15:25:26;6.20;99.90
28336;DHT22;15592;53.656;7.276;2023-02-24T15:28:00;6.20;99.90
28336;DHT22;15592;53.656;7.276;2023-02-24T15:33:19;6.40;99.90
28336;DHT22;15592;53.656;7.276;2023-02-24T15:35:47;6.40;99.90
28336;DHT22;15592;53.656;7.276;2023-02-24T15:38:23;6.40;99.90
28336;DHT22;15592;53.656;7.276;2023-02-24T15:40:51;6.40;99.90
28336;DHT22;15592;53.656;7.276;2023-02-24T15:43:34;6.20;99.90
28336;DHT22;15592;53.656;7.276;2023-02-24T15:46:27;6.10;99.90
28336;DHT22;15592;53.656;7.276;2023-02-24T15:48:54;6.10;99.90
28336;DHT22;15592;53.656;7.276;2023-02-24T15:51:35;6.10;99.90
28336;DHT22;15592;53.656;7.276;2023-02-24T15:54:04;6.00;99.90
28336;DHT22;15592;53.656;7.276;2023-02-24T15:56:32;6.00;99.90
28336;DHT22;15592;53.656;7.276;2023-02-24T15:58:58;6.00;99.90
28336;DHT22;15592;53.656;7.276;2023-02-24T16:01:31;6.00;99.90
28336;DHT22;15592;53.656;7.276;2023-02-24T16:03:58;6.10;99.90
28336;DHT22;15592;53.656;7.276;2023-02-24T16:06:24;6.10;99.90
28336;DHT22;15592;53.656;7.276;2023-02-24T16:08:52;6.10;99.90
28336;DHT22;15592;53.656;7.276;2023-02-24T16:11:21;6.20;99.90
28336;DHT22;15592;53.656;7.276;2023-02-24T16:13:54;6.20;99.90
28336;DHT22;15592;53.656;7.276;2023-02-24T16:16:24;6.10;99.90
28336;DHT22;15592;53.656;7.276;2023-02-24T16:18:53;6.10;99.90
28336;DHT22;15592;53.656;7.276;2023-02-24T16:21:19;6.10;99.90
28336;DHT22;15592;53.656;7.276;2023-02-24T16:23:44;6.10;99.90
28336;DHT22;15592;53.656;7.276;2023-02-24T16:26:15;6.10;99.90
28336;DHT22;15592;53.656;7.276;2023-02-24T16:28:41;6.10;99.90
28336;DHT22;15592;53.656;7.276;2023-02-24T16:31:07;6.20;99.90
28336;DHT22;15592;53.656;7.276;2023-02-24T16:33:33;6.20;99.90
28336;DHT22;15592;53.656;7.276;2023-02-24T16:35:59;6.20;99.90
28336;DHT22;15592;53.656;7.276;2023-02-24T16:38:25;6.10;99.90
28336;DHT22;15592;53.656;7.276;2023-02-24T16:40:51;6.10;99.90
28336;DHT22;15592;53.656;7.276;2023-02-24T16:43:16;6.00;99.90
28336;DHT22;15592;53.656;7.276;2023-02-24T16:45:43;5.90;99.90
28336;DHT22;15592;53.656;7.276;2023-02-24T16:48:19;5.90;99.90
28336;DHT22;15592;53.656;7.276;2023-02-24T16:50:46;5.90;99.90
28336;DHT22;15592;53.656;7.276;2023-02-24T16:53:14;5.90;99.90
28336;DHT22;15592;53.656;7.276;2023-02-24T16:55:41;5.90;99.90
28336;DHT22;15592;53.656;7.276;2023-02-24T16:58:11;6.00;99.90
28336;DHT22;15592;53.656;7.276;2023-02-24T17:00:39;6.00;99.90
28336;DHT22;15592;53.656;7.276;2023-02-24T17:03:20;6.00;99.90
28336;DHT22;15592;53.656;7.276;2023-02-24T17:05:47;6.00;99.90
28336;DHT22;15592;53.656;7.276;2023-02-24T17:08:14;6.00;99.90
28336;DHT22;15592;53.656;7.276;2023-02-24T17:10:40;6.00;99.90
28336;DHT22;15592;53.656;7.276;2023-02-24T17:13:10;6.00;99.90
28336;DHT22;15592;53.656;7.276;2023-02-24T17:15:36;6.00;99.90
28336;DHT22;15592;53.656;7.276;2023-02-24T17:18:03;6.00;99.90
28336;DHT22;15592;53.656;7.276;2023-02-24T17:20:29;6.10;99.90
28336;DHT22;15592;53.656;7.276;2023-02-24T17:22:54;6.10;99.90
28336;DHT22;15592;53.656;7.276;2023-02-24T17:25:26;6.10;99.90
28336;DHT22;15592;53.656;7.276;2023-02-24T17:27:53;6.10;99.90
28336;DHT22;15592;53.656;7.276;2023-02-24T17:30:25;6.10;99.90
28336;DHT22;15592;53.656;7.276;2023-02-24T17:32:50;6.10;99.90
28336;DHT22;15592;53.656;7.276;2023-02-24T17:35:17;6.10;99.90
28336;DHT22;15592;53.656;7.276;2023-02-24T17:37:42;6.10;99.90
28336;DHT22;15592;53.656;7.276;2023-02-24T17:40:09;6.20;99.90
28336;DHT22;15592;53.656;7.276;2023-02-24T17:42:35;6.10;99.90
28336;DHT22;15592;53.656;7.276;2023-02-24T17:45:01;6.10;99.90
28336;DHT22;15592;53.656;7.276;2023-02-24T17:47:27;5.90;99.90
28336;DHT22;15592;53.656;7.276;2023-02-24T17:49:52;5.70;99.90
28336;DHT22;15592;53.656;7.276;2023-02-24T17:52:18;5.70;99.90
28336;DHT22;15592;53.656;7.276;2023-02-24T17:54:43;5.60;99.90
28336;DHT22;15592;53.656;7.276;2023-02-24T17:57:09;5.50;99.90
28336;DHT22;15592;53.656;7.276;2023-02-24T17:59:35;5.50;99.90
28336;DHT22;15592;53.656;7.276;2023-02-24T18:02:01;5.50;99.90
28336;DHT22;15592;53.656;7.276;2023-02-24T18:04:27;5.50;99.90
28336;DHT22;15592;53.656;7.276;2023-02-24T18:06:53;5.60;99.90
28336;DHT22;15592;53.656;7.276;2023-02-24T18:09:19;5.60;99.90
28336;DHT22;15592;53.656;7.276;2023-02-24T18:11:44;5.70;99.90
28336;DHT22;15592;53.656;7.276;2023-02-24T18:14:11;5.70;99.90
28336;DHT22;15592;53.656;7.276;2023-02-24T18:16:37;5.80;99.90
28336;DHT22;15592;53.656;7.276;2023-02-24T18:19:03;5.60;99.90
28336;DHT22;15592;53.656;7.276;2023-02-24T18:21:28;5.50;99.90
28336;DHT22;15592;53.656;7.276;2023-02-24T18:23:54;5.40;99.90
28336;DHT22;15592;53.656;7.276;2023-02-24T18:26:20;5.30;99.90